Time;durP1;ratioP1;P1;durP2;ratioP2;P2;SDS_P1;SDS_P2;PMS_P1;PMS_P2;Temp;Humidity;BMP_temperature;BMP_pressure;BME280_temperature;BME280_humidity;BME280_pressure;Samples;Min_cycle;Max_cycle;Signal;HPM_P1;HPM_P2
2023/05/23 00:01:57;;;;;;;9.95;5.70;;;;;;;14.83;86.35;99152.75;5030434;28;20056;-87
2023/05/23 00:04:25;;;;;;;7.03;4.70;;;;;;;15.09;84.52;99154.09;5021211;28;20040;-87
2023/05/23 00:06:52;;;;;;;6.22;4.97;;;;;;;15.25;83.50;99160.41;5029683;28;20037;-87
2023/05/23 00:09:18;;;;;;;6.47;5.20;;;;;;;15.25;82.79;99156.78;5030466;28;20013;-87
2023/05/23 00:11:44;;;;;;;6.35;4.75;;;;;;;15.27;82.46;99137.53;5014352;28;20048;-87
2023/05/23 00:14:13;;;;;;;6.55;5.35;;;;;;;15.31;81.76;99146.84;5010492;28;20044;-87
2023/05/23 00:16:43;;;;;;;10.40;5.53;;;;;;;15.10;82.13;99139.63;5010731;28;20037;-88
2023/05/23 00:19:15;;;;;;;7.22;5.97;;;;;;;14.70;84.63;99129.56;5011941;28;20053;-87
2023/05/23 00:21:47;;;;;;;5.78;4.90;;;;;;;14.61;84.65;99115.72;5028507;28;20084;-87
2023/05/23 00:24:13;;;;;;;6.68;5.07;;;;;;;14.76;84.52;99124.50;5029315;28;20029;-87
2023/05/23 00:26:38;;;;;;;12.43;5.20;;;;;;;14.56;85.61;99130.09;5025250;28;20124;-87
2023/05/23 00:29:04;;;;;;;9.95;5.85;;;;;;;14.74;85.10;99130.47;5030074;28;20032;-86
2023/05/23 00:31:30;;;;;;;6.40;4.82;;;;;;;14.84;84.16;99117.78;5024773;28;20040;-86
2023/05/23 00:33:55;;;;;;;7.68;5.47;;;;;;;14.87;83.78;99133.97;5025517;28;20139;-87
2023/05/23 00:36:23;;;;;;;5.93;4.85;;;;;;;15.05;83.79;99139.09;5015982;28;20057;-87
2023/05/23 00:38:48;;;;;;;8.95;5.65;;;;;;;14.97;83.02;99138.16;5009836;28;20048;-87
2023/05/23 00:41:14;;;;;;;11.80;5.28;;;;;;;15.17;82.31;99141.75;5030728;28;20025;-87
2023/05/23 00:43:40;;;;;;;10.63;5.13;;;;;;;14.69;82.55;99140.00;5037790;28;20022;-87
2023/05/23 00:46:06;;;;;;;6.40;5.43;;;;;;;14.64;83.31;99140.31;5012688;28;20029;-86
2023/05/23 00:48:32;;;;;;;7.90;5.63;;;;;;;13.96;87.98;99134.00;5029233;28;20032;-87
2023/05/23 00:50:58;;;;;;;5.95;4.95;;;;;;;13.73;89.71;99143.94;5033172;28;20022;-86
2023/05/23 00:53:24;;;;;;;6.35;5.57;;;;;;;14.07;89.67;99134.28;5033680;28;20025;-86
2023/05/23 00:55:50;;;;;;;7.97;5.03;;;;;;;13.90;88.03;99131.50;5034691;28;20024;-86
2023/05/23 00:58:16;;;;;;;7.75;5.85;;;;;;;13.91;88.65;99140.72;5035411;28;20497;-86
2023/05/23 01:00:43;;;;;;;10.60;5.65;;;;;;;14.09;88.21;99123.47;5030419;28;20024;-86
2023/05/23 01:03:16;;;;;;;6.05;5.05;;;;;;;14.31;85.89;99134.03;5016671;28;20083;-87
2023/05/23 01:05:42;;;;;;;10.68;5.72;;;;;;;14.40;85.21;99127.34;5033683;28;20014;-86
2023/05/23 01:08:08;;;;;;;19.48;5.38;;;;;;;14.38;84.63;99113.66;5033653;28;20090;-87
2023/05/23 01:10:34;;;;;;;8.18;5.78;;;;;;;14.16;85.40;99132.88;5026889;28;20482;-87
2023/05/23 01:12:59;;;;;;;14.02;6.22;;;;;;;14.09;87.55;99129.91;5016718;28;20037;-86
2023/05/23 01:15:45;;;;;;;6.22;5.63;;;;;;;13.85;87.48;99122.53;5046533;28;20090;-86
2023/05/23 01:18:33;;;;;;;7.65;5.45;;;;;;;14.08;86.63;99122.66;5030361;28;20039;-86
2023/05/23 01:21:11;;;;;;;13.70;6.55;;;;;;;13.79;88.13;99123.97;5016867;28;20095;-86
2023/05/23 01:24:10;;;;;;;10.68;5.88;;;;;;;13.79;87.50;99122.00;5037364;28;20453;-87
2023/05/23 01:27:06;;;;;;;7.47;5.25;;;;;;;13.70;88.68;99132.63;5027210;28;20033;-86
2023/05/23 01:29:37;;;;;;;8.32;6.28;;;;;;;13.86;87.98;99122.16;5026364;28;20425;-87
2023/05/23 01:32:06;;;;;;;12.20;5.65;;;;;;;14.04;86.98;99116.94;5036411;28;20417;-86
2023/05/23 01:34:35;;;;;;;6.00;5.40;;;;;;;13.74;87.58;99106.22;5036302;28;20067;-86
2023/05/23 01:37:00;;;;;;;7.18;5.53;;;;;;;13.41;89.81;99115.03;5048723;28;20021;-86
2023/05/23 01:39:26;;;;;;;7.97;6.00;;;;;;;13.29;91.47;99110.31;5024613;28;20029;-87
2023/05/23 01:41:52;;;;;;;7.68;5.63;;;;;;;13.46;90.57;99103.53;5018246;28;20033;-87
2023/05/23 01:44:19;;;;;;;10.13;6.38;;;;;;;13.51;89.22;99105.25;5035783;28;20029;-87
2023/05/23 01:46:46;;;;;;;11.20;5.85;;;;;;;13.24;90.41;99107.78;5036016;28;20021;-87
2023/05/23 01:49:13;;;;;;;6.95;5.40;;;;;;;13.15;90.98;99108.78;5027425;28;20018;-86
2023/05/23 01:51:38;;;;;;;7.15;5.63;;;;;;;12.95;92.41;99093.81;5034581;28;20030;-87
2023/05/23 01:54:05;;;;;;;7.75;6.20;;;;;;;12.72;93.67;99071.97;5033756;28;20021;-85
2023/05/23 01:56:30;;;;;;;8.27;5.40;;;;;;;13.03;92.95;99104.06;5014845;28;20118;-86
2023/05/23 01:58:56;;;;;;;7.07;5.82;;;;;;;13.06;92.77;99100.53;5015189;28;20120;-86
2023/05/23 02:01:22;;;;;;;7.30;5.90;;;;;;;13.10;92.04;99099.78;5035112;28;20033;-87
2023/05/23 02:03:48;;;;;;;6.80;5.85;;;;;;;13.12;91.72;99100.25;5034830;28;20043;-87
2023/05/23 02:06:13;;;;;;;8.90;5.90;;;;;;;12.90;92.78;99108.09;5053560;28;20025;-86
2023/05/23 02:08:39;;;;;;;11.35;6.50;;;;;;;12.74;93.46;99103.28;5033995;28;20024;-87
2023/05/23 02:11:04;;;;;;;6.63;5.80;;;;;;;12.72;93.11;99102.81;5023872;28;20028;-86
2023/05/23 02:13:30;;;;;;;8.55;6.68;;;;;;;13.04;91.89;99111.31;5051790;28;20021;-87
2023/05/23 02:15:55;;;;;;;8.00;6.28;;;;;;;13.00;91.25;99103.97;5034448;28;20108;-87
2023/05/23 02:18:24;;;;;;;8.68;6.38;;;;;;;12.90;92.44;99105.28;5035605;28;20024;-86
2023/05/23 02:20:50;;;;;;;8.03;6.23;;;;;;;12.99;92.30;99107.94;5034374;28;20090;-86
2023/05/23 02:23:16;;;;;;;9.98;6.22;;;;;;;13.02;91.94;99112.84;5035447;28;21006;-86
2023/05/23 02:25:41;;;;;;;8.10;6.78;;;;;;;13.01;92.45;99123.22;5017101;28;20425;-86
2023/05/23 02:28:07;;;;;;;8.73;6.45;;;;;;;13.37;90.84;99125.34;5035185;28;20021;-87
2023/05/23 02:30:32;;;;;;;9.55;6.15;;;;;;;13.46;90.12;99120.41;5033708;28;20033;-87
2023/05/23 02:32:58;;;;;;;10.82;6.95;;;;;;;13.54;88.97;99110.16;5035151;28;20017;-87
2023/05/23 02:35:23;;;;;;;7.68;6.63;;;;;;;13.19;88.58;99092.81;5035157;28;20128;-87
2023/05/23 02:37:49;;;;;;;9.23;6.38;;;;;;;13.50;88.02;99115.66;5020572;28;20025;-87
2023/05/23 02:40:14;;;;;;;7.47;5.82;;;;;;;13.53;88.16;99109.34;5020330;28;20073;-86
2023/05/23 02:42:40;;;;;;;8.15;5.65;;;;;;;13.31;88.15;99096.72;5015202;28;20019;-87
2023/05/23 02:45:06;;;;;;;9.98;6.20;;;;;;;13.23;89.01;99095.72;5044214;28;20524;-86
2023/05/23 02:47:31;;;;;;;10.30;7.15;;;;;;;13.06;90.17;99096.88;5033099;28;20021;-87
2023/05/23 02:49:57;;;;;;;9.43;6.95;;;;;;;12.86;91.04;99099.59;5026111;28;20028;-86
2023/05/23 02:52:24;;;;;;;11.85;6.35;;;;;;;13.05;90.20;99112.09;5052685;28;20040;-86
2023/05/23 02:54:49;;;;;;;8.95;6.70;;;;;;;13.08;90.61;99110.56;5034789;28;20056;-86
2023/05/23 02:57:15;;;;;;;13.90;6.97;;;;;;;13.29;89.27;99110.31;5034640;28;20041;-87
2023/05/23 02:59:40;;;;;;;9.05;6.65;;;;;;;13.44;89.04;99106.69;5028709;28;20045;-86
2023/05/23 03:02:06;;;;;;;12.63;6.32;;;;;;;13.51;88.27;99110.88;5033025;28;20083;-86
2023/05/23 03:04:31;;;;;;;15.25;6.47;;;;;;;13.58;87.46;99105.44;5052414;28;20028;-86
2023/05/23 03:06:58;;;;;;;13.98;7.45;;;;;;;13.70;87.14;99110.97;5034636;28;20048;-87
2023/05/23 03:09:23;;;;;;;10.70;7.13;;;;;;;13.75;87.58;99102.22;5032233;28;20025;-87
2023/05/23 03:11:50;;;;;;;10.43;7.22;;;;;;;13.80;87.13;99098.34;5022531;28;20413;-87
2023/05/23 03:14:15;;;;;;;11.88;7.28;;;;;;;13.73;86.93;99075.66;5052078;28;20413;-87
2023/05/23 03:16:41;;;;;;;9.32;7.25;;;;;;;13.81;87.17;99101.94;5034425;28;20023;-87
2023/05/23 03:19:06;;;;;;;12.15;6.82;;;;;;;13.95;86.22;99098.66;5019280;28;20472;-87
2023/05/23 03:21:32;;;;;;;19.48;6.72;;;;;;;13.95;85.30;99104.28;5014370;28;20021;-86
2023/05/23 03:23:57;;;;;;;9.35;6.30;;;;;;;13.86;85.66;99108.09;5014316;28;20418;-86
2023/05/23 03:26:22;;;;;;;8.80;5.85;;;;;;;14.01;84.84;99085.94;5032210;28;20029;-87
2023/05/23 03:28:49;;;;;;;7.97;5.30;;;;;;;14.02;84.13;99096.00;5029573;28;20493;-87
2023/05/23 03:31:15;;;;;;;10.23;6.63;;;;;;;14.01;83.97;99100.81;5030937;28;20028;-87
2023/05/23 03:33:41;;;;;;;9.95;5.60;;;;;;;14.01;83.84;99097.19;5031983;28;20480;-86
2023/05/23 03:36:06;;;;;;;11.30;6.45;;;;;;;13.96;83.89;99103.09;5032564;28;20052;-87
2023/05/23 03:38:32;;;;;;;10.60;6.93;;;;;;;14.08;83.65;99105.78;5024382;28;20075;-87
2023/05/23 03:40:57;;;;;;;9.80;6.00;;;;;;;14.07;82.72;99098.53;5018995;28;20036;-87
2023/05/23 03:43:23;;;;;;;7.97;5.95;;;;;;;14.04;82.53;99102.88;5014168;28;20037;-87
2023/05/23 03:45:48;;;;;;;15.25;6.45;;;;;;;13.88;83.26;99108.56;5017667;28;20078;-87
2023/05/23 03:48:14;;;;;;;11.00;6.28;;;;;;;13.77;83.74;99090.63;5031538;28;20033;-87
2023/05/23 03:50:39;;;;;;;10.07;6.35;;;;;;;13.95;82.98;99123.97;5033868;28;20064;-87
2023/05/23 03:53:05;;;;;;;7.20;4.88;;;;;;;13.81;82.91;99111.19;5032963;28;20402;-87
2023/05/23 03:55:31;;;;;;;10.73;5.00;;;;;;;13.79;83.09;99085.47;5033716;28;20032;-87
2023/05/23 03:57:56;;;;;;;6.25;4.65;;;;;;;13.74;82.75;99086.56;5044295;28;20056;-86
2023/05/23 04:00:22;;;;;;;12.00;6.32;;;;;;;13.94;83.05;99113.91;5029064;28;20028;-87
2023/05/23 04:02:48;;;;;;;27.83;5.72;;;;;;;14.01;83.50;99109.25;5051590;28;20083;-87
2023/05/23 04:05:14;;;;;;;11.95;5.40;;;;;;;13.94;82.49;99091.41;5033548;28;20033;-87
2023/05/23 04:07:40;;;;;;;12.65;5.65;;;;;;;13.82;83.50;99107.22;5029993;28;20057;-87
2023/05/23 04:10:06;;;;;;;13.43;8.45;;;;;;;13.85;83.89;99095.22;5029283;28;20078;-87
2023/05/23 04:12:33;;;;;;;23.55;7.07;;;;;;;13.98;83.60;99098.75;5013873;28;20520;-87
2023/05/23 04:14:58;;;;;;;9.80;5.30;;;;;;;14.12;82.73;99083.38;5031471;28;20026;-87
2023/05/23 04:17:24;;;;;;;15.27;5.60;;;;;;;14.49;81.81;99107.44;5030828;28;20589;-87
2023/05/23 04:19:50;;;;;;;18.50;5.25;;;;;;;14.76;81.05;99113.22;5016033;28;20092;-87
2023/05/23 04:22:16;;;;;;;7.18;6.00;;;;;;;14.94;80.04;99116.38;5054781;28;20111;-87
2023/05/23 04:24:41;;;;;;;10.15;5.75;;;;;;;14.88;78.22;99118.69;5036574;28;20095;-87
2023/05/23 04:27:07;;;;;;;40.55;13.93;;;;;;;14.92;78.07;99118.78;5055393;28;20036;-87
2023/05/23 04:29:34;;;;;;;25.13;11.75;;;;;;;14.93;78.05;99117.59;5020639;28;20039;-87
2023/05/23 04:32:01;;;;;;;25.80;11.77;;;;;;;14.71;78.99;99115.09;5036625;28;20029;-87
2023/05/23 04:34:26;;;;;;;23.85;11.73;;;;;;;14.70;79.78;99113.47;5035955;28;20475;-87
2023/05/23 04:36:53;;;;;;;37.13;15.50;;;;;;;14.79;80.02;99115.28;5037410;28;20021;-87
2023/05/23 04:39:19;;;;;;;30.40;14.13;;;;;;;14.81;79.63;99101.66;5020693;28;20037;-87
2023/05/23 04:41:45;;;;;;;31.77;15.70;;;;;;;14.93;80.55;99120.41;5017217;28;20037;-87
2023/05/23 04:44:11;;;;;;;18.52;9.70;;;;;;;14.86;81.62;99126.72;5030614;28;20032;-87
2023/05/23 04:46:40;;;;;;;16.52;7.75;;;;;;;14.83;82.16;99127.44;5042641;28;20476;-87
2023/05/23 04:49:09;;;;;;;7.93;5.80;;;;;;;14.96;82.68;99133.72;5018744;28;20036;-87
2023/05/23 04:51:34;;;;;;;15.23;6.80;;;;;;;15.15;82.40;99127.22;5034457;28;20083;-87
2023/05/23 04:54:01;;;;;;;9.20;6.05;;;;;;;15.18;82.51;99131.31;5035576;28;20454;-87
2023/05/23 04:56:27;;;;;;;8.65;6.65;;;;;;;15.26;83.02;99105.69;5033066;28;20084;-87
2023/05/23 04:58:53;;;;;;;8.43;5.70;;;;;;;15.33;82.66;99107.03;5022426;28;20033;-87
2023/05/23 05:01:18;;;;;;;9.23;5.60;;;;;;;15.73;82.05;99122.56;5029012;28;20075;-87
2023/05/23 05:03:44;;;;;;;9.30;5.72;;;;;;;15.59;81.55;99120.31;5026935;28;20171;-87
2023/05/23 05:06:09;;;;;;;14.15;6.53;;;;;;;15.90;82.43;99129.72;5033365;28;20039;-87
2023/05/23 05:08:35;;;;;;;9.32;6.40;;;;;;;15.78;82.48;99121.44;5050483;28;20028;-86
2023/05/23 05:11:01;;;;;;;12.07;5.95;;;;;;;16.04;80.51;99117.81;5051459;28;20055;-86
2023/05/23 05:13:26;;;;;;;10.57;6.20;;;;;;;16.21;78.68;99124.09;5033867;28;20111;-87
2023/05/23 05:15:52;;;;;;;12.82;6.13;;;;;;;16.38;78.46;99115.06;5033278;28;20123;-87
2023/05/23 05:18:17;;;;;;;15.60;5.72;;;;;;;16.44;77.35;99121.19;5028667;28;20037;-87
2023/05/23 05:20:43;;;;;;;11.32;7.25;;;;;;;16.67;76.33;99134.38;5029987;28;20025;-87
2023/05/23 05:23:08;;;;;;;8.30;5.72;;;;;;;16.52;75.12;99116.44;5032314;28;20091;-87
2023/05/23 05:25:35;;;;;;;19.42;8.60;;;;;;;16.77;74.67;99132.84;5051450;28;20036;-87
2023/05/23 05:28:07;;;;;;;12.23;6.97;;;;;;;16.72;75.14;99133.22;5019497;28;20041;-87
2023/05/23 05:30:34;;;;;;;14.57;7.45;;;;;;;16.86;73.42;99141.84;5013261;28;20107;-86
2023/05/23 05:33:02;;;;;;;8.65;6.55;;;;;;;17.07;70.46;99135.63;5024365;28;20422;-86
2023/05/23 05:35:29;;;;;;;25.42;6.20;;;;;;;16.89;71.09;99121.28;5023942;28;20425;-86
2023/05/23 05:37:55;;;;;;;11.93;6.82;;;;;;;17.03;71.31;99139.66;5034995;28;20529;-86
2023/05/23 05:40:21;;;;;;;7.07;5.78;;;;;;;17.12;71.54;99142.97;5031374;28;20060;-86
2023/05/23 05:42:46;;;;;;;11.90;6.15;;;;;;;17.02;72.17;99133.19;5031466;28;20025;-87
2023/05/23 05:45:12;;;;;;;9.82;7.22;;;;;;;17.23;71.51;99135.41;5032008;28;20033;-87
2023/05/23 05:47:37;;;;;;;11.55;6.65;;;;;;;17.35;71.41;99130.66;5049021;28;20047;-87
2023/05/23 05:50:06;;;;;;;9.13;5.32;;;;;;;17.42;70.78;99144.88;5011350;28;20482;-87
2023/05/23 05:52:33;;;;;;;14.23;7.82;;;;;;;17.56;71.90;99144.19;5013897;28;20040;-87
2023/05/23 05:54:58;;;;;;;14.77;7.43;;;;;;;17.56;71.03;99137.72;5013095;28;20458;-86
2023/05/23 05:57:24;;;;;;;13.85;8.80;;;;;;;17.52;71.20;99138.50;5017616;28;20084;-87
2023/05/23 05:59:49;;;;;;;12.98;7.68;;;;;;;17.60;69.44;99139.38;5026262;28;20441;-86
2023/05/23 06:02:15;;;;;;;11.63;6.90;;;;;;;17.87;69.60;99138.38;5030028;28;20476;-85
2023/05/23 06:04:40;;;;;;;19.40;6.75;;;;;;;18.01;69.31;99129.16;5032967;28;20041;-86
2023/05/23 06:07:06;;;;;;;8.77;4.63;;;;;;;18.09;68.27;99140.16;5046574;28;20493;-85
2023/05/23 06:09:31;;;;;;;10.73;4.85;;;;;;;18.28;68.65;99135.44;5035262;28;20469;-86
2023/05/23 06:11:57;;;;;;;6.93;4.32;;;;;;;18.52;67.80;99138.78;5030681;28;20044;-86
2023/05/23 06:14:22;;;;;;;12.00;6.60;;;;;;;18.38;67.79;99137.50;5032464;28;20032;-85
2023/05/23 06:16:48;;;;;;;11.13;5.00;;;;;;;18.67;66.63;99122.66;5030599;28;20026;-86
2023/05/23 06:19:13;;;;;;;6.95;4.90;;;;;;;18.64;66.94;99129.13;5033003;28;20040;-86
2023/05/23 06:21:39;;;;;;;9.77;5.00;;;;;;;18.94;66.60;99120.34;5032694;28;20552;-85
2023/05/23 06:24:04;;;;;;;11.85;5.40;;;;;;;19.11;63.68;99123.63;5034915;28;20083;-86
2023/05/23 06:26:30;;;;;;;7.65;4.85;;;;;;;18.89;63.87;99115.03;5014217;28;20120;-85
2023/05/23 06:28:55;;;;;;;11.35;4.22;;;;;;;18.95;63.54;99112.63;5014674;28;20041;-85
2023/05/23 06:31:21;;;;;;;6.50;4.88;;;;;;;18.96;63.53;99113.44;5029967;28;20036;-86
2023/05/23 06:33:46;;;;;;;7.07;4.38;;;;;;;19.00;63.40;99114.28;5022155;28;20037;-86
2023/05/23 06:36:11;;;;;;;12.70;5.30;;;;;;;19.33;62.49;99109.50;5014926;28;20037;-86
2023/05/23 06:38:37;;;;;;;9.00;5.40;;;;;;;19.50;61.09;99090.88;5014326;28;20017;-85
2023/05/23 06:41:05;;;;;;;6.28;4.90;;;;;;;19.49;60.73;99089.25;5025608;28;20021;-85
2023/05/23 06:43:31;;;;;;;8.23;4.18;;;;;;;19.47;61.43;99115.16;5034040;28;20031;-87
2023/05/23 06:45:56;;;;;;;12.18;4.47;;;;;;;19.70;61.38;99105.44;5034197;28;20033;-86
2023/05/23 06:48:22;;;;;;;11.55;4.57;;;;;;;19.95;60.75;99113.16;5020339;28;20095;-85
2023/05/23 06:50:48;;;;;;;13.88;5.22;;;;;;;20.40;58.69;99109.78;5040409;28;20435;-86
2023/05/23 06:53:15;;;;;;;6.65;4.22;;;;;;;20.15;58.88;99109.84;5048808;28;20421;-87
2023/05/23 06:55:40;;;;;;;7.47;5.47;;;;;;;20.45;59.17;99106.53;5020513;28;20108;-85
2023/05/23 06:58:06;;;;;;;9.32;4.43;;;;;;;20.81;56.83;99116.94;5016911;28;20152;-86
2023/05/23 07:00:31;;;;;;;8.70;4.68;;;;;;;20.84;57.76;99106.78;5018608;28;20036;-86
2023/05/23 07:03:02;;;;;;;6.65;4.50;;;;;;;20.61;56.59;99091.03;5010153;28;20101;-87
2023/05/23 07:05:28;;;;;;;5.78;4.22;;;;;;;20.66;56.78;99104.78;5015295;28;20025;-86
2023/05/23 07:07:53;;;;;;;5.07;4.57;;;;;;;20.98;56.34;99105.88;5030666;28;20128;-86
2023/05/23 07:10:20;;;;;;;6.30;5.22;;;;;;;21.11;57.24;99089.94;5045859;28;20429;-86
2023/05/23 07:12:45;;;;;;;9.00;5.18;;;;;;;21.48;54.33;99101.06;5032456;28;20032;-86
2023/05/23 07:15:11;;;;;;;7.90;4.75;;;;;;;21.81;53.16;99101.63;5029814;28;20039;-86
2023/05/23 07:17:37;;;;;;;12.98;4.85;;;;;;;21.63;52.58;99105.41;5043346;28;20103;-86
2023/05/23 07:20:07;;;;;;;11.98;4.85;;;;;;;21.87;53.48;99102.78;5033724;28;20060;-86
2023/05/23 07:22:33;;;;;;;9.93;4.10;;;;;;;21.94;52.83;99097.00;5035535;28;20086;-86
2023/05/23 07:24:58;;;;;;;7.38;4.57;;;;;;;22.07;50.93;99096.47;5028673;28;20559;-87
2023/05/23 07:27:25;;;;;;;20.42;5.38;;;;;;;22.55;49.13;99106.94;5032015;28;20049;-87
2023/05/23 07:29:51;;;;;;;8.10;5.00;;;;;;;22.74;49.54;99103.84;5051654;28;20482;-86
2023/05/23 07:32:17;;;;;;;11.50;4.68;;;;;;;22.42;49.71;99103.81;5031377;28;20463;-87
2023/05/23 07:34:42;;;;;;;17.00;4.85;;;;;;;22.40;51.44;99097.75;5017880;28;20037;-87
2023/05/23 07:37:08;;;;;;;9.32;5.10;;;;;;;22.50;51.11;99086.66;5017683;28;20025;-86
2023/05/23 07:39:33;;;;;;;12.68;5.43;;;;;;;22.50;51.31;99096.03;5016438;28;20258;-87
2023/05/23 07:41:59;;;;;;;6.07;5.15;;;;;;;22.83;50.94;99087.88;5017241;28;20040;-86
2023/05/23 07:44:24;;;;;;;5.13;4.45;;;;;;;23.06;46.56;99091.19;5024724;28;20032;-86
2023/05/23 07:46:50;;;;;;;12.98;6.43;;;;;;;22.91;46.70;99096.31;5037595;28;20115;-86
2023/05/23 07:49:15;;;;;;;10.23;4.75;;;;;;;23.08;46.51;99094.44;5021843;28;20025;-86
2023/05/23 07:51:41;;;;;;;13.45;5.93;;;;;;;22.86;45.68;99094.72;5030133;28;20041;-87
2023/05/23 07:54:07;;;;;;;36.83;8.13;;;;;;;23.44;46.10;99096.75;5026263;28;20025;-86
2023/05/23 07:56:32;;;;;;;10.82;4.68;;;;;;;23.60;44.63;99092.44;5014536;28;20081;-86
2023/05/23 07:58:57;;;;;;;11.25;4.65;;;;;;;23.46;44.75;99093.47;5025291;28;20033;-86
2023/05/23 08:01:24;;;;;;;5.80;4.65;;;;;;;23.33;44.78;99094.09;5030645;28;20033;-86
2023/05/23 08:03:49;;;;;;;10.75;5.00;;;;;;;23.35;46.60;99091.59;5018415;28;20028;-86
2023/05/23 08:06:15;;;;;;;5.97;4.05;;;;;;;23.38;44.30;99087.88;5031591;28;20051;-86
2023/05/23 08:08:42;;;;;;;22.90;6.85;;;;;;;23.47;44.66;99092.22;5018800;28;20029;-87
2023/05/23 08:11:08;;;;;;;19.42;5.00;;;;;;;23.64;43.61;99082.53;5013562;28;20021;-86
2023/05/23 08:13:33;;;;;;;4.85;3.80;;;;;;;23.97;41.68;99093.41;5018397;28;20029;-87
2023/05/23 08:15:59;;;;;;;5.07;4.43;;;;;;;24.38;42.38;99091.44;5030996;28;20029;-86
2023/05/23 08:18:24;;;;;;;7.22;4.20;;;;;;;24.22;41.48;99087.22;5017058;28;20043;-86
2023/05/23 08:20:50;;;;;;;6.38;3.83;;;;;;;24.69;42.32;99082.59;5032614;28;20041;-86
2023/05/23 08:23:16;;;;;;;4.55;3.72;;;;;;;24.48;41.79;99069.59;5013669;28;20033;-86
2023/05/23 08:25:42;;;;;;;4.50;3.75;;;;;;;25.06;41.87;99086.31;5024676;28;20481;-86
2023/05/23 08:28:07;;;;;;;7.57;4.03;;;;;;;24.90;37.72;99089.13;5023468;28;20056;-86
2023/05/23 08:30:33;;;;;;;8.38;4.47;;;;;;;24.84;39.49;99074.56;5015895;28;20405;-86
2023/05/23 08:33:03;;;;;;;9.95;4.68;;;;;;;24.85;37.31;99084.75;5028078;28;20103;-87
2023/05/23 08:35:33;;;;;;;4.35;3.58;;;;;;;25.19;39.88;99083.56;5041282;28;20547;-85
2023/05/23 08:38:00;;;;;;;9.57;4.22;;;;;;;24.88;37.44;99080.19;5039749;28;20029;-86
2023/05/23 08:40:28;;;;;;;5.20;3.40;;;;;;;24.91;35.97;99085.03;5014033;28;20025;-86
2023/05/23 08:42:53;;;;;;;8.07;3.80;;;;;;;24.88;37.81;99083.06;5019414;28;20040;-85
2023/05/23 08:45:19;;;;;;;6.78;3.63;;;;;;;25.58;36.46;99075.28;5020342;28;20510;-85
2023/05/23 08:47:46;;;;;;;5.72;4.22;;;;;;;25.92;36.49;99070.31;5022894;28;20045;-86
2023/05/23 08:50:16;;;;;;;6.85;3.88;;;;;;;26.12;35.16;99080.81;5016909;28;20022;-85
2023/05/23 08:52:54;;;;;;;9.45;3.83;;;;;;;25.81;36.54;99082.03;5017568;28;20025;-85
2023/05/23 08:55:22;;;;;;;6.25;3.58;;;;;;;26.13;34.00;99080.38;5019668;28;20036;-85
2023/05/23 08:57:48;;;;;;;6.13;4.05;;;;;;;25.89;36.33;99074.09;5027317;28;20407;-86
2023/05/23 09:00:15;;;;;;;7.18;3.90;;;;;;;25.89;35.66;99080.59;5030164;28;20044;-85
2023/05/23 09:02:45;;;;;;;7.35;3.90;;;;;;;25.88;35.46;99078.19;5020705;28;20028;-85
2023/05/23 09:05:11;;;;;;;24.42;4.55;;;;;;;25.99;36.86;99081.56;5031862;28;20090;-86
2023/05/23 09:07:37;;;;;;;8.63;4.80;;;;;;;26.07;34.99;99077.25;5025711;28;20048;-86
2023/05/23 09:10:07;;;;;;;27.50;4.97;;;;;;;26.32;35.91;99078.63;5038401;28;20033;-86
2023/05/23 09:12:35;;;;;;;6.55;4.13;;;;;;;26.46;35.80;99071.69;5031865;28;20028;-85
2023/05/23 09:15:02;;;;;;;8.40;3.92;;;;;;;26.55;36.53;99076.75;5014656;28;20120;-85
2023/05/23 09:17:30;;;;;;;6.60;3.58;;;;;;;26.38;35.52;99078.09;5014817;28;20033;-88
2023/05/23 09:19:55;;;;;;;4.93;3.58;;;;;;;26.16;36.34;99070.88;5031102;28;20592;-87
2023/05/23 09:22:27;;;;;;;6.38;4.45;;;;;;;25.48;34.93;99071.41;5026308;28;20063;-86
2023/05/23 09:24:56;;;;;;;9.55;4.15;;;;;;;25.88;36.97;99076.13;5015822;28;20037;-86
2023/05/23 09:27:22;;;;;;;5.47;4.10;;;;;;;26.07;36.03;99070.75;5024295;28;20028;-86
2023/05/23 09:29:49;;;;;;;8.10;3.92;;;;;;;26.28;36.55;99068.53;5022624;28;20545;-86
2023/05/23 09:32:16;;;;;;;5.65;3.40;;;;;;;26.22;36.91;99074.00;5020611;28;20040;-87
2023/05/23 09:34:55;;;;;;;6.97;4.40;;;;;;;26.65;35.09;99068.31;5020457;28;20037;-86
2023/05/23 09:37:23;;;;;;;8.13;4.20;;;;;;;26.56;36.18;99055.44;5014424;28;20115;-86
2023/05/23 09:39:49;;;;;;;5.53;3.53;;;;;;;26.53;35.22;99067.00;5017942;28;20047;-85
2023/05/23 09:42:21;;;;;;;9.15;5.53;;;;;;;26.48;35.93;99066.31;5022414;28;20033;-86
2023/05/23 09:44:47;;;;;;;5.53;3.78;;;;;;;26.58;36.05;99064.38;5026169;28;20035;-87
2023/05/23 09:47:15;;;;;;;5.47;3.78;;;;;;;26.66;34.49;99070.69;5029774;28;20116;-86
2023/05/23 09:49:43;;;;;;;4.18;3.78;;;;;;;26.73;32.67;99073.34;5028888;28;20040;-87
2023/05/23 09:52:08;;;;;;;6.85;3.72;;;;;;;26.66;35.51;99067.03;5030284;28;20033;-87
2023/05/23 09:54:34;;;;;;;6.70;4.05;;;;;;;26.88;34.79;99052.84;5022574;28;20470;-87
2023/05/23 09:57:01;;;;;;;6.85;3.80;;;;;;;26.47;33.51;99058.16;5018837;28;20040;-87
2023/05/23 09:59:33;;;;;;;4.95;3.85;;;;;;;27.01;35.01;99061.47;5028842;28;20552;-87
2023/05/23 10:02:02;;;;;;;4.95;3.65;;;;;;;27.40;34.05;99062.25;5042364;28;20029;-86
2023/05/23 10:04:31;;;;;;;8.07;3.88;;;;;;;27.14;34.15;99061.47;5018879;28;20433;-86
2023/05/23 10:07:03;;;;;;;7.60;4.13;;;;;;;27.26;34.16;99060.66;5047926;28;20024;-86
2023/05/23 10:09:32;;;;;;;5.47;3.97;;;;;;;27.02;33.79;99052.41;5054647;28;20032;-86
2023/05/23 10:12:19;;;;;;;5.97;3.70;;;;;;;27.40;30.91;99058.59;5020925;28;20453;-87
2023/05/23 10:14:53;;;;;;;4.03;3.60;;;;;;;27.08;32.17;99054.72;5041502;28;20037;-87
2023/05/23 10:18:03;;;;;;;9.45;3.47;;;;;;;27.27;31.78;99056.56;5025361;28;20094;-87
2023/05/23 10:20:31;;;;;;;4.30;3.65;;;;;;;27.44;29.29;99053.53;4992285;28;20040;-87
2023/05/23 10:23:01;;;;;;;6.47;3.42;;;;;;;27.33;30.09;99057.56;5033686;28;20028;-87
2023/05/23 10:25:27;;;;;;;6.25;3.25;;;;;;;27.62;28.42;99041.47;5033369;28;20500;-86
2023/05/23 10:27:58;;;;;;;5.80;3.97;;;;;;;27.45;30.08;99032.97;5023954;28;20449;-87
2023/05/23 10:30:27;;;;;;;3.75;3.15;;;;;;;26.54;31.51;99034.19;5042043;28;20664;-87
2023/05/23 10:32:57;;;;;;;6.20;4.45;;;;;;;27.42;31.22;99030.22;5047091;28;20050;-87
2023/05/23 10:35:29;;;;;;;5.85;3.67;;;;;;;27.73;32.43;99036.16;5031520;28;20063;-86
2023/05/23 10:38:18;;;;;;;8.05;3.88;;;;;;;28.01;31.77;99021.22;5024801;28;20040;-86
2023/05/23 10:41:12;;;;;;;3.70;3.30;;;;;;;27.88;30.77;99032.75;5022174;28;20036;-86
2023/05/23 10:43:51;;;;;;;4.97;3.72;;;;;;;27.69;31.00;99028.91;5022757;28;20063;-86
2023/05/23 10:46:20;;;;;;;10.55;3.90;;;;;;;27.94;29.11;99035.84;5019272;28;20033;-86
2023/05/23 10:48:46;;;;;;;5.50;3.80;;;;;;;28.44;30.60;99022.50;5031210;28;20036;-86
2023/05/23 10:51:13;;;;;;;5.15;3.10;;;;;;;27.70;30.00;99025.59;5015754;28;20022;-86
2023/05/23 10:53:45;;;;;;;4.63;3.60;;;;;;;27.54;29.90;99012.19;5032376;28;20084;-87
2023/05/23 10:56:24;;;;;;;7.68;3.97;;;;;;;27.24;32.04;99007.88;5018882;28;20060;-87
2023/05/23 10:58:55;;;;;;;6.25;3.17;;;;;;;27.43;31.96;99018.25;5025709;28;20056;-87
2023/05/23 11:01:21;;;;;;;6.20;3.65;;;;;;;27.83;32.51;99021.88;5016527;28;20549;-86
2023/05/23 11:03:46;;;;;;;5.40;3.45;;;;;;;27.92;31.71;99021.16;5025703;28;20028;-86
2023/05/23 11:06:37;;;;;;;6.68;3.58;;;;;;;28.41;29.97;99028.38;5020549;28;20041;-86
2023/05/23 11:09:13;;;;;;;8.50;4.15;;;;;;;28.37;30.05;99027.72;5020271;28;20082;-86
2023/05/23 11:11:58;;;;;;;7.63;3.42;;;;;;;27.94;30.75;99028.03;5032865;28;20025;-87
2023/05/23 11:14:32;;;;;;;7.30;3.22;;;;;;;27.80;29.59;99029.34;5018862;28;20025;-86
2023/05/23 11:17:16;;;;;;;7.25;3.70;;;;;;;28.02;31.27;99031.44;5032107;28;20152;-86
2023/05/23 11:20:03;;;;;;;5.85;3.80;;;;;;;28.20;30.69;99018.50;5017997;28;20501;-86
2023/05/23 11:22:29;;;;;;;9.15;3.20;;;;;;;28.38;30.59;99020.72;5018353;28;20020;-87
2023/05/23 11:24:56;;;;;;;5.32;3.40;;;;;;;27.95;30.63;99017.34;5018417;28;20024;-86
2023/05/23 11:27:36;;;;;;;3.53;3.10;;;;;;;27.37;32.17;99019.31;5018424;28;20025;-87
2023/05/23 11:30:06;;;;;;;5.80;3.42;;;;;;;26.61;31.31;99016.78;5021918;28;20442;-87
2023/05/23 11:32:32;;;;;;;4.25;3.78;;;;;;;27.07;30.88;99025.19;5020841;28;20076;-87